createdAt,value
2022-08-03T00:01:23.780Z,25.70
2022-08-03T00:04:11.228Z,25.80
2022-08-03T00:06:57.987Z,25.70
2022-08-03T00:09:44.758Z,25.70
2022-08-03T00:12:33.020Z,25.40
2022-08-03T00:15:19.916Z,25.40
2022-08-03T00:18:06.366Z,25.30
2022-08-03T00:20:52.834Z,25.40
2022-08-03T00:23:51.286Z,25.50
2022-08-03T00:26:38.976Z,25.50
2022-08-03T00:29:27.300Z,25.30
2022-08-03T00:32:14.275Z,25.30
2022-08-03T00:35:00.973Z,25.20
2022-08-03T00:37:54.338Z,25.40
2022-08-03T00:40:40.795Z,25.30
2022-08-03T00:43:27.926Z,25.40
2022-08-03T00:46:21.072Z,25.50
2022-08-03T00:49:09.383Z,25.40
2022-08-03T00:51:56.685Z,25.30
2022-08-03T00:54:43.243Z,25.20
2022-08-03T00:57:31.181Z,25.10
2022-08-03T01:00:21.550Z,24.90
2022-08-03T01:03:11.927Z,24.90
2022-08-03T01:06:07.006Z,24.80
2022-08-03T01:09:09.673Z,24.80
2022-08-03T01:12:01.961Z,24.90
2022-08-03T01:14:56.691Z,24.90
2022-08-03T01:17:51.295Z,24.90
2022-08-03T01:20:44.754Z,25.10
2022-08-03T01:23:49.768Z,25.10
2022-08-03T01:26:49.819Z,25.20
2022-08-03T01:29:59.294Z,25.20
2022-08-03T01:33:02.227Z,25.10
2022-08-03T01:35:55.468Z,25.10
2022-08-03T01:38:45.426Z,25.10
2022-08-03T01:41:36.394Z,25.20
2022-08-03T01:44:30.155Z,25.20
2022-08-03T01:47:21.121Z,25.20
2022-08-03T01:50:09.877Z,25.10
2022-08-03T01:52:58.900Z,25.20
2022-08-03T01:55:48.618Z,25.20
2022-08-03T01:58:37.400Z,25.10
2022-08-03T02:01:25.369Z,25.10
2022-08-03T02:04:34.341Z,24.80
2022-08-03T02:07:21.118Z,24.70
2022-08-03T02:10:10.128Z,24.70
2022-08-03T02:12:58.508Z,24.70
2022-08-03T02:15:45.794Z,24.70
2022-08-03T02:18:33.648Z,24.70
2022-08-03T02:21:56.486Z,24.70
2022-08-03T02:24:30.352Z,24.50
2022-08-03T02:27:22.243Z,24.60
2022-08-03T02:30:11.917Z,24.70
2022-08-03T02:33:00.453Z,24.70
2022-08-03T02:35:49.619Z,24.60
2022-08-03T02:38:43.351Z,24.60
2022-08-03T02:41:33.241Z,24.50
2022-08-03T02:44:26.093Z,24.40
2022-08-03T02:47:15.562Z,24.40
2022-08-03T02:50:03.777Z,24.50
2022-08-03T02:52:52.175Z,24.30
2022-08-03T02:55:42.976Z,24.20
2022-08-03T02:58:33.679Z,24.00
2022-08-03T03:01:23.344Z,24.00
2022-08-03T03:04:12.950Z,24.00
2022-08-03T03:07:01.850Z,23.90
2022-08-03T03:09:51.603Z,23.90
2022-08-03T03:12:41.936Z,23.80
2022-08-03T03:15:29.525Z,23.90
2022-08-03T03:18:22.083Z,23.90
2022-08-03T03:21:10.704Z,23.90
2022-08-03T03:23:58.027Z,23.80
2022-08-03T03:26:45.198Z,23.70
2022-08-03T03:29:36.535Z,23.70
2022-08-03T03:32:28.036Z,23.70
2022-08-03T03:35:16.663Z,23.50
2022-08-03T03:38:03.192Z,23.40
2022-08-03T03:40:50.150Z,23.50
2022-08-03T03:43:36.720Z,23.40
2022-08-03T03:46:24.876Z,23.40
2022-08-03T03:49:12.297Z,23.40
2022-08-03T03:51:58.796Z,23.40
2022-08-03T03:54:46.491Z,23.30
2022-08-03T03:57:33.070Z,23.20
2022-08-03T04:00:20.859Z,23.20
2022-08-03T04:03:11.258Z,23.10
2022-08-03T04:06:16.384Z,23.10
2022-08-03T04:09:20.521Z,23.10
2022-08-03T04:12:08.144Z,23.00
2022-08-03T04:14:57.907Z,23.10
2022-08-03T04:17:45.828Z,23.30
2022-08-03T04:20:36.224Z,23.40
2022-08-03T04:23:26.472Z,23.40
2022-08-03T04:26:16.186Z,23.40
2022-08-03T04:29:03.869Z,23.40
2022-08-03T04:31:51.701Z,23.50
2022-08-03T04:34:38.573Z,23.60
2022-08-03T04:37:38.435Z,23.70
2022-08-03T04:40:29.870Z,23.80
2022-08-03T04:43:19.564Z,23.80
2022-08-03T04:46:07.180Z,23.60
2022-08-03T04:48:54.320Z,23.60
2022-08-03T04:51:42.708Z,23.60
2022-08-03T04:54:31.586Z,23.40
2022-08-03T04:57:23.126Z,23.40
2022-08-03T05:00:11.410Z,23.50
2022-08-03T05:02:58.845Z,23.40
2022-08-03T05:05:50.343Z,23.60
2022-08-03T05:08:45.913Z,23.70
2022-08-03T05:11:34.836Z,23.70
2022-08-03T05:14:28.161Z,23.60
2022-08-03T05:17:14.964Z,23.70
2022-08-03T05:20:01.321Z,23.60
2022-08-03T05:22:47.773Z,23.70
2022-08-03T05:25:34.201Z,23.60
2022-08-03T05:28:22.024Z,23.70
2022-08-03T05:31:08.406Z,23.90
2022-08-03T05:33:55.565Z,23.90
2022-08-03T05:36:42.101Z,23.90
2022-08-03T05:39:28.870Z,24.00
2022-08-03T05:42:17.050Z,24.00
2022-08-03T05:45:14.707Z,24.10
2022-08-03T05:48:01.397Z,24.20
2022-08-03T05:50:48.418Z,24.30
2022-08-03T05:53:35.262Z,24.30
2022-08-03T05:56:24.658Z,24.50
2022-08-03T05:59:35.672Z,24.60
2022-08-03T06:02:19.243Z,24.60
2022-08-03T06:05:07.268Z,24.70
2022-08-03T06:07:54.530Z,24.80
2022-08-03T06:10:41.271Z,25.10
2022-08-03T06:13:27.816Z,25.10
2022-08-03T06:16:14.388Z,25.20
2022-08-03T06:19:02.297Z,25.20
2022-08-03T06:21:49.067Z,25.20
2022-08-03T06:24:37.663Z,25.30
2022-08-03T06:27:37.132Z,25.40
2022-08-03T06:30:24.740Z,25.60
2022-08-03T06:33:11.223Z,25.80
2022-08-03T06:35:59.125Z,25.90
2022-08-03T06:38:45.814Z,26.00
2022-08-03T06:41:37.996Z,26.00
2022-08-03T06:44:25.257Z,26.10
2022-08-03T06:47:11.775Z,26.20
2022-08-03T06:50:12.933Z,26.20
2022-08-03T06:53:06.176Z,26.40
2022-08-03T06:55:54.928Z,26.60
2022-08-03T06:58:42.109Z,26.80
2022-08-03T07:01:28.520Z,26.90
2022-08-03T07:04:15.561Z,27.10
2022-08-03T07:07:02.202Z,27.20
2022-08-03T07:09:56.401Z,27.40
2022-08-03T07:12:55.698Z,27.50
2022-08-03T07:15:54.916Z,27.70
2022-08-03T07:18:42.966Z,27.80
2022-08-03T07:21:29.283Z,28.10
2022-08-03T07:24:15.842Z,28.10
2022-08-03T07:27:04.043Z,28.10
2022-08-03T07:29:50.620Z,28.20
2022-08-03T07:32:37.259Z,28.20
2022-08-03T07:35:37.338Z,28.20
2022-08-03T07:38:23.972Z,28.30
2022-08-03T07:41:10.399Z,28.40
2022-08-03T07:43:58.300Z,28.40
2022-08-03T07:46:45.018Z,28.70
2022-08-03T07:49:32.170Z,28.70
2022-08-03T07:52:36.443Z,28.90
2022-08-03T07:55:25.031Z,29.20
2022-08-03T07:58:16.493Z,29.60
2022-08-03T08:01:07.285Z,29.90
2022-08-03T08:03:56.183Z,30.40
2022-08-03T08:06:42.878Z,30.90
2022-08-03T08:09:30.751Z,31.20
2022-08-03T08:12:18.076Z,31.50
2022-08-03T08:15:05.549Z,31.50
2022-08-03T08:17:55.048Z,31.80
2022-08-03T08:20:41.674Z,32.20
2022-08-03T08:23:41.716Z,32.20
2022-08-03T08:26:30.203Z,32.70
2022-08-03T08:29:16.805Z,33.00
2022-08-03T08:32:03.221Z,33.30
2022-08-03T08:34:51.403Z,33.70
2022-08-03T08:37:38.532Z,33.70
2022-08-03T08:40:25.118Z,34.00
2022-08-03T08:43:11.739Z,34.20
2022-08-03T08:46:00.145Z,34.50
2022-08-03T08:48:49.149Z,34.80
2022-08-03T08:51:59.695Z,35.10
2022-08-03T08:54:47.187Z,35.50
2022-08-03T08:57:43.162Z,35.80
2022-08-03T09:00:30.896Z,36.30
2022-08-03T09:03:29.186Z,37.10
2022-08-03T09:06:17.007Z,37.40
2022-08-03T09:09:07.053Z,37.20
2022-08-03T09:12:01.245Z,37.60
2022-08-03T09:15:21.362Z,37.90
2022-08-03T09:18:09.541Z,37.70
2022-08-03T09:21:30.556Z,38.10
2022-08-03T09:24:40.667Z,38.40
2022-08-03T09:27:28.260Z,38.40
2022-08-03T09:30:33.595Z,38.40
2022-08-03T09:33:21.733Z,38.60
2022-08-03T09:36:08.376Z,38.80
2022-08-03T09:39:04.536Z,39.00
2022-08-03T09:42:06.552Z,39.60
2022-08-03T09:44:54.015Z,39.30
2022-08-03T09:47:44.648Z,38.90
2022-08-03T09:50:58.677Z,39.20
2022-08-03T09:54:00.350Z,38.80
2022-08-03T09:56:48.626Z,38.50
2022-08-03T09:59:39.143Z,39.10
2022-08-03T10:02:28.929Z,39.00
2022-08-03T10:05:19.422Z,39.30
2022-08-03T10:08:16.289Z,40.10
2022-08-03T10:11:02.695Z,40.50
2022-08-03T10:13:49.118Z,41.00
2022-08-03T10:16:38.320Z,40.80
2022-08-03T10:19:25.611Z,40.60
2022-08-03T10:22:15.160Z,39.60
2022-08-03T10:25:04.687Z,37.90
2022-08-03T10:27:53.788Z,37.00
2022-08-03T10:30:45.125Z,37.60
2022-08-03T10:33:50.971Z,38.20
2022-08-03T10:36:41.705Z,38.50
2022-08-03T10:39:31.025Z,39.10
2022-08-03T10:42:17.665Z,39.20
2022-08-03T10:45:07.957Z,39.80
2022-08-03T10:47:57.978Z,40.20
2022-08-03T10:50:47.349Z,40.60
2022-08-03T10:53:38.492Z,40.40
2022-08-03T10:57:01.122Z,40.70
2022-08-03T11:00:03.286Z,40.80
2022-08-03T11:03:10.929Z,40.70
2022-08-03T11:06:17.716Z,40.80
2022-08-03T11:09:19.551Z,41.10
2022-08-03T11:12:30.493Z,41.30
2022-08-03T11:15:34.172Z,41.50
2022-08-03T11:18:20.925Z,42.30
2022-08-03T11:21:15.365Z,42.30
2022-08-03T11:24:06.382Z,42.70
2022-08-03T11:27:18.754Z,42.50
2022-08-03T11:30:07.862Z,42.20
2022-08-03T11:32:58.954Z,41.50
2022-08-03T11:36:00.554Z,40.50
2022-08-03T11:39:16.756Z,40.40
2022-08-03T11:42:50.681Z,40.50
2022-08-03T11:45:38.882Z,41.40
2022-08-03T11:48:29.123Z,40.90
2022-08-03T11:51:23.884Z,41.40
2022-08-03T11:54:11.554Z,41.80
2022-08-03T11:56:59.515Z,42.60
2022-08-03T11:59:46.145Z,42.50
2022-08-03T12:02:32.680Z,42.40
2022-08-03T12:05:19.401Z,43.10
2022-08-03T12:08:07.419Z,42.40
2022-08-03T12:10:54.819Z,43.30
2022-08-03T12:14:35.673Z,43.40
2022-08-03T12:16:52.230Z,44.20
2022-08-03T12:19:43.952Z,45.20
2022-08-03T12:22:34.320Z,45.40
2022-08-03T12:25:39.516Z,44.70
2022-08-03T12:28:36.581Z,45.50
2022-08-03T12:31:32.200Z,46.00
2022-08-03T12:34:18.952Z,46.50
2022-08-03T12:37:22.602Z,46.60
2022-08-03T12:40:17.754Z,47.70
2022-08-03T12:43:15.363Z,47.10
2022-08-03T12:46:09.650Z,47.20
2022-08-03T12:49:03.661Z,47.20
2022-08-03T12:52:07.737Z,47.00
2022-08-03T12:54:58.252Z,46.30
2022-08-03T12:57:45.284Z,46.60
2022-08-03T13:00:32.213Z,46.70
2022-08-03T13:03:39.174Z,46.60
2022-08-03T13:06:27.285Z,47.20
2022-08-03T13:09:15.013Z,48.40
2022-08-03T13:12:09.447Z,49.10
2022-08-03T13:14:59.444Z,49.20
2022-08-03T13:17:46.362Z,49.30
2022-08-03T13:20:33.752Z,49.20
2022-08-03T13:23:22.883Z,48.50
2022-08-03T13:26:09.680Z,47.30
2022-08-03T13:28:56.074Z,47.80
2022-08-03T13:31:50.944Z,48.90
2022-08-03T13:34:38.664Z,49.10
2022-08-03T13:37:25.819Z,48.70
2022-08-03T13:40:14.722Z,49.60
2022-08-03T13:43:01.363Z,49.40
2022-08-03T13:45:52.401Z,49.00
2022-08-03T13:48:41.942Z,48.60
2022-08-03T13:51:28.413Z,49.60
2022-08-03T13:54:15.234Z,49.90
2022-08-03T13:58:01.379Z,49.70
2022-08-03T14:00:11.842Z,51.30
2022-08-03T14:03:15.317Z,50.70
2022-08-03T14:06:02.017Z,51.40
2022-08-03T14:08:48.998Z,50.00
2022-08-03T14:12:08.467Z,48.80
2022-08-03T14:14:43.902Z,48.60
2022-08-03T14:17:42.354Z,49.30
2022-08-03T14:20:49.968Z,48.40
2022-08-03T14:23:38.878Z,47.10
2022-08-03T14:26:25.423Z,44.80
2022-08-03T14:29:11.777Z,43.00
2022-08-03T14:32:10.071Z,41.50
2022-08-03T14:34:58.993Z,40.80
2022-08-03T14:37:45.611Z,40.20
2022-08-03T14:40:33.344Z,39.30
2022-08-03T14:43:21.154Z,39.00
2022-08-03T14:46:08.018Z,38.30
2022-08-03T14:50:29.015Z,38.20
2022-08-03T14:52:02.696Z,38.50
2022-08-03T14:54:49.216Z,38.40
2022-08-03T14:57:35.752Z,38.30
2022-08-03T15:00:22.135Z,38.50
2022-08-03T15:03:08.929Z,38.50
2022-08-03T15:05:58.059Z,38.30
2022-08-03T15:09:00.515Z,37.80
2022-08-03T15:11:52.529Z,37.70
2022-08-03T15:14:39.634Z,37.40
2022-08-03T15:17:26.189Z,37.60
2022-08-03T15:20:25.624Z,37.40
2022-08-03T15:23:18.128Z,37.40
2022-08-03T15:26:30.699Z,37.60
2022-08-03T15:30:07.852Z,37.70
2022-08-03T15:32:18.349Z,37.60
2022-08-03T15:35:05.524Z,37.40
2022-08-03T15:37:52.494Z,37.50
2022-08-03T15:40:40.649Z,37.50
2022-08-03T15:43:27.377Z,37.40
2022-08-03T15:46:28.892Z,37.50
2022-08-03T15:49:17.078Z,37.60
2022-08-03T15:52:03.447Z,37.40
2022-08-03T15:54:50.262Z,37.60
2022-08-03T15:59:03.156Z,37.50
2022-08-03T16:00:45.809Z,37.10
2022-08-03T16:03:34.417Z,37.10
2022-08-03T16:06:34.660Z,37.20
2022-08-03T16:09:23.591Z,36.80
2022-08-03T16:12:29.126Z,36.30
2022-08-03T16:15:17.479Z,36.40
2022-08-03T16:18:04.213Z,36.70
2022-08-03T16:20:50.806Z,36.30
2022-08-03T16:23:39.658Z,36.50
2022-08-03T16:26:29.485Z,36.30
2022-08-03T16:29:23.116Z,36.00
2022-08-03T16:32:11.422Z,35.90
2022-08-03T16:34:58.077Z,36.20
2022-08-03T16:37:55.999Z,36.30
2022-08-03T16:40:43.742Z,36.40
2022-08-03T16:43:30.412Z,36.30
2022-08-03T16:46:16.860Z,36.20
2022-08-03T16:49:04.566Z,36.10
2022-08-03T16:51:51.296Z,36.00
2022-08-03T16:54:37.848Z,36.20
2022-08-03T16:57:58.232Z,35.60
2022-08-03T17:00:41.178Z,35.70
2022-08-03T17:03:28.948Z,35.60
2022-08-03T17:06:34.349Z,35.60
2022-08-03T17:09:21.371Z,35.70
2022-08-03T17:12:21.051Z,35.80
2022-08-03T17:15:10.413Z,35.80
2022-08-03T17:18:05.191Z,35.90
2022-08-03T17:20:53.151Z,35.90
2022-08-03T17:23:47.812Z,35.90
2022-08-03T17:26:37.236Z,35.70
2022-08-03T17:29:34.932Z,35.80
2022-08-03T17:32:22.396Z,36.00
2022-08-03T17:35:11.427Z,36.10
2022-08-03T17:38:05.823Z,35.90
2022-08-03T17:40:57.602Z,35.90
2022-08-03T17:44:16.027Z,35.70
2022-08-03T17:46:53.850Z,35.50
2022-08-03T17:49:40.932Z,35.40
2022-08-03T17:52:35.539Z,35.40
2022-08-03T17:55:57.326Z,35.60
2022-08-03T17:58:54.626Z,35.40
2022-08-03T18:02:15.250Z,35.40
2022-08-03T18:05:16.588Z,35.40
2022-08-03T18:08:08.096Z,35.40
2022-08-03T18:11:03.436Z,35.40
2022-08-03T18:14:06.965Z,35.30
2022-08-03T18:17:06.228Z,35.30
2022-08-03T18:20:02.156Z,35.20
2022-08-03T18:22:52.050Z,35.20
2022-08-03T18:25:50.793Z,35.20
2022-08-03T18:28:41.841Z,35.20
2022-08-03T18:31:59.895Z,35.10
2022-08-03T18:34:53.176Z,35.00
2022-08-03T18:37:52.160Z,34.80
2022-08-03T18:40:48.654Z,34.70
2022-08-03T18:43:45.343Z,34.50
2022-08-03T18:46:46.713Z,34.40
2022-08-03T18:49:43.453Z,34.30
2022-08-03T18:52:37.948Z,34.20
2022-08-03T18:55:35.866Z,34.00
2022-08-03T18:58:31.014Z,33.90
2022-08-03T19:02:00.882Z,33.70
2022-08-03T19:04:35.057Z,33.70
2022-08-03T19:07:27.302Z,33.50
2022-08-03T19:10:16.089Z,33.30
2022-08-03T19:13:11.521Z,33.20
2022-08-03T19:16:04.345Z,33.20
2022-08-03T19:18:56.900Z,33.10
2022-08-03T19:21:45.984Z,33.10
2022-08-03T19:24:37.945Z,32.90
2022-08-03T19:27:27.415Z,32.80
2022-08-03T19:30:35.190Z,32.70
2022-08-03T19:33:29.997Z,32.70
2022-08-03T19:36:16.843Z,32.60
2022-08-03T19:39:14.768Z,32.50
2022-08-03T19:42:18.466Z,32.50
2022-08-03T19:45:14.372Z,32.30
2022-08-03T19:48:09.837Z,32.20
2022-08-03T19:50:59.100Z,32.10
2022-08-03T19:53:48.191Z,32.10
2022-08-03T19:56:36.780Z,32.00
2022-08-03T19:59:28.450Z,31.90
2022-08-03T20:02:17.409Z,31.80
2022-08-03T20:05:15.277Z,31.00
2022-08-03T20:08:03.774Z,31.60
2022-08-03T20:10:51.405Z,31.60
2022-08-03T20:13:40.108Z,31.70
2022-08-03T20:16:27.788Z,31.60
2022-08-03T20:19:15.256Z,31.50
2022-08-03T20:22:02.442Z,31.50
2022-08-03T20:24:52.800Z,31.60
2022-08-03T20:28:06.926Z,31.70
2022-08-03T20:30:54.334Z,31.60
2022-08-03T20:33:46.582Z,31.60
2022-08-03T20:36:35.942Z,31.50
2022-08-03T20:39:25.137Z,31.40
2022-08-03T20:42:14.129Z,31.40
2022-08-03T20:45:13.879Z,31.40
2022-08-03T20:48:05.044Z,31.40
2022-08-03T20:50:54.325Z,31.20
2022-08-03T20:53:59.840Z,31.20
2022-08-03T20:59:55.488Z,31.00
2022-08-03T21:02:42.385Z,31.10
2022-08-03T21:05:51.453Z,31.00
2022-08-03T21:08:47.020Z,31.00
2022-08-03T21:11:43.193Z,30.90
2022-08-03T21:13:07.725Z,31.20
2022-08-03T21:14:39.322Z,30.80
2022-08-03T21:17:41.649Z,30.80
2022-08-03T21:20:31.737Z,30.70
2022-08-03T21:23:39.808Z,30.80
2022-08-03T21:26:33.005Z,30.60
2022-08-03T21:29:21.214Z,30.50
2022-08-03T21:32:09.243Z,30.40
2022-08-03T21:35:03.675Z,30.30
2022-08-03T21:38:12.821Z,30.30
2022-08-03T21:41:00.497Z,30.30
2022-08-03T21:43:47.467Z,30.20
2022-08-03T21:46:36.892Z,30.10
2022-08-03T21:50:04.478Z,30.20
2022-08-03T21:52:33.672Z,30.10
2022-08-03T21:55:26.203Z,30.00
2022-08-03T21:58:15.215Z,30.00
2022-08-03T22:01:05.319Z,30.00
2022-08-03T22:03:54.401Z,30.00
2022-08-03T22:06:42.513Z,29.90
2022-08-03T22:09:30.041Z,29.90
2022-08-03T22:12:18.098Z,29.90
2022-08-03T22:15:08.514Z,29.80
2022-08-03T22:17:57.518Z,29.80
2022-08-03T22:20:48.441Z,29.80
2022-08-03T22:23:39.953Z,29.80
2022-08-03T22:26:35.134Z,29.70
2022-08-03T22:29:23.422Z,29.70
2022-08-03T22:32:10.504Z,29.80
2022-08-03T22:34:58.586Z,29.70
2022-08-03T22:37:49.360Z,29.60
2022-08-03T22:40:38.310Z,29.60
2022-08-03T22:43:26.634Z,29.60
2022-08-03T22:46:18.677Z,29.60
2022-08-03T22:49:05.886Z,29.60
2022-08-03T22:51:53.891Z,29.60
2022-08-03T22:54:40.980Z,29.60
2022-08-03T22:57:27.826Z,29.60
2022-08-03T23:00:16.911Z,29.60
2022-08-03T23:03:08.258Z,29.60
2022-08-03T23:06:01.086Z,29.60
2022-08-03T23:08:51.974Z,29.60
2022-08-03T23:11:45.661Z,29.50
2022-08-03T23:14:39.578Z,29.50
2022-08-03T23:17:28.223Z,29.50
2022-08-03T23:20:16.558Z,29.50
2022-08-03T23:23:04.983Z,29.50
2022-08-03T23:25:52.713Z,29.50
2022-08-03T23:28:40.795Z,29.40
2022-08-03T23:31:30.031Z,29.40
2022-08-03T23:34:36.574Z,29.30
2022-08-03T23:37:26.668Z,29.30
2022-08-03T23:40:14.883Z,29.40
2022-08-03T23:43:03.056Z,29.40
2022-08-03T23:45:50.345Z,29.40
2022-08-03T23:48:36.847Z,29.40
2022-08-03T23:51:33.069Z,29.40
2022-08-03T23:54:31.608Z,29.40
2022-08-03T23:57:26.696Z,29.40
